Time;durP1;ratioP1;P1;durP2;ratioP2;P2;SDS_P1;SDS_P2;PMS_P1;PMS_P2;Temp;Humidity;BMP_temperature;BMP_pressure;BME280_temperature;BME280_humidity;BME280_pressure;Samples;Min_cycle;Max_cycle;Signal;HPM_P1;HPM_P2
2023/03/30 00:00:19;;;;;;;18.08;4.90;;;;;;;;;;4899744;28;20047;-72
2023/03/30 00:02:45;;;;;;;18.45;4.72;;;;;;;;;;4895956;28;20096;-69
2023/03/30 00:05:10;;;;;;;16.02;4.63;;;;;;;;;;4925129;28;20097;-69
2023/03/30 00:07:41;;;;;;;22.65;5.25;;;;;;;;;;4923260;28;20197;-68
2023/03/30 00:10:07;;;;;;;20.00;4.47;;;;;;;;;;4892898;28;20038;-71
2023/03/30 00:12:32;;;;;;;14.00;4.68;;;;;;;;;;4894374;28;20614;-70
2023/03/30 00:14:58;;;;;;;19.02;5.30;;;;;;;;;;4893184;28;20028;-69
2023/03/30 00:17:23;;;;;;;20.95;5.28;;;;;;;;;;4894747;28;20047;-69
2023/03/30 00:19:48;;;;;;;20.63;5.68;;;;;;;;;;4894724;28;20961;-70
2023/03/30 00:22:14;;;;;;;23.00;5.32;;;;;;;;;;4894143;28;20425;-70
2023/03/30 00:24:41;;;;;;;21.80;5.47;;;;;;;;;;4894066;28;20036;-70
2023/03/30 00:27:09;;;;;;;22.65;6.18;;;;;;;;;;4894460;28;20035;-71
2023/03/30 00:29:34;;;;;;;22.85;4.97;;;;;;;;;;4896496;28;20051;-70
2023/03/30 00:32:02;;;;;;;24.73;5.53;;;;;;;;;;4893123;28;20990;-71
2023/03/30 00:34:30;;;;;;;23.77;5.78;;;;;;;;;;4903825;28;20565;-70
2023/03/30 00:36:56;;;;;;;21.50;6.68;;;;;;;;;;4927976;28;20039;-71
2023/03/30 00:39:25;;;;;;;31.48;6.68;;;;;;;;;;4900943;28;20061;-71
2023/03/30 00:41:51;;;;;;;23.02;6.75;;;;;;;;;;4898505;28;20042;-71
2023/03/30 00:44:34;;;;;;;17.73;6.57;;;;;;;;;;4898353;28;20035;-70
2023/03/30 00:47:00;;;;;;;18.98;7.88;;;;;;;;;;4900102;28;20040;-69
2023/03/30 00:49:25;;;;;;;16.33;6.72;;;;;;;;;;4895269;28;20070;-70
2023/03/30 00:51:50;;;;;;;16.40;6.93;;;;;;;;;;4897225;28;22429;-70
2023/03/30 00:54:17;;;;;;;17.92;6.85;;;;;;;;;;4898784;28;20066;-69
2023/03/30 00:56:43;;;;;;;21.33;6.53;;;;;;;;;;4902484;28;20039;-69
2023/03/30 00:59:09;;;;;;;20.33;6.50;;;;;;;;;;4898258;28;20125;-71
2023/03/30 01:01:39;;;;;;;19.42;6.38;;;;;;;;;;4899169;28;20051;-69
2023/03/30 01:04:04;;;;;;;19.92;6.50;;;;;;;;;;4926413;28;20191;-69
2023/03/30 01:06:31;;;;;;;22.63;6.53;;;;;;;;;;4901170;28;20864;-70
2023/03/30 01:08:59;;;;;;;19.05;6.00;;;;;;;;;;4899061;28;20615;-71
2023/03/30 01:11:25;;;;;;;16.52;6.50;;;;;;;;;;4979103;28;20040;-71
2023/03/30 01:14:01;;;;;;;17.10;7.03;;;;;;;;;;4896616;28;20039;-70
2023/03/30 01:16:33;;;;;;;17.75;6.82;;;;;;;;;;4899774;28;20031;-71
2023/03/30 01:19:08;;;;;;;20.27;6.15;;;;;;;;;;4878940;28;20067;-70
2023/03/30 01:21:54;;;;;;;14.77;5.45;;;;;;;;;;4914005;28;20046;-70
2023/03/30 01:24:36;;;;;;;22.77;6.07;;;;;;;;;;4897286;28;20914;-71
2023/03/30 01:27:17;;;;;;;22.75;5.47;;;;;;;;;;4898498;28;20860;-71
2023/03/30 01:29:55;;;;;;;26.05;5.68;;;;;;;;;;4898544;28;20047;-70
2023/03/30 01:32:33;;;;;;;20.33;4.85;;;;;;;;;;4895695;28;20039;-70
2023/03/30 01:35:14;;;;;;;19.92;5.10;;;;;;;;;;4897465;28;20122;-70
2023/03/30 01:37:54;;;;;;;17.05;4.50;;;;;;;;;;4897201;28;21236;-70
2023/03/30 01:40:19;;;;;;;17.17;4.13;;;;;;;;;;4903612;28;20039;-71
2023/03/30 01:42:56;;;;;;;18.73;4.82;;;;;;;;;;4900885;28;20038;-69
2023/03/30 01:45:37;;;;;;;21.23;5.10;;;;;;;;;;4899724;28;20063;-70
2023/03/30 01:48:12;;;;;;;17.88;4.63;;;;;;;;;;4899624;28;20150;-69
2023/03/30 01:50:39;;;;;;;18.67;4.65;;;;;;;;;;4904206;28;22255;-70
2023/03/30 01:53:16;;;;;;;16.65;4.15;;;;;;;;;;4903118;28;20043;-70
2023/03/30 01:55:47;;;;;;;21.88;4.65;;;;;;;;;;4897476;28;20039;-70
2023/03/30 01:58:18;;;;;;;20.77;5.22;;;;;;;;;;4903947;28;20982;-71
2023/03/30 02:00:49;;;;;;;19.17;4.07;;;;;;;;;;4897212;28;20035;-70
2023/03/30 02:03:18;;;;;;;20.27;5.45;;;;;;;;;;4916588;28;20043;-71
2023/03/30 02:05:46;;;;;;;20.52;4.53;;;;;;;;;;4898814;28;20898;-70
2023/03/30 02:08:19;;;;;;;20.00;4.60;;;;;;;;;;4899047;28;20179;-71
2023/03/30 02:10:46;;;;;;;16.30;4.25;;;;;;;;;;4897601;28;20032;-71
2023/03/30 02:13:12;;;;;;;20.45;4.07;;;;;;;;;;4915450;28;20835;-69
2023/03/30 02:15:40;;;;;;;19.88;4.72;;;;;;;;;;4897625;28;20043;-69
2023/03/30 02:18:08;;;;;;;24.20;4.45;;;;;;;;;;4895593;28;20064;-69
2023/03/30 02:20:34;;;;;;;21.17;5.00;;;;;;;;;;4893978;28;20040;-71
2023/03/30 02:23:00;;;;;;;22.13;4.82;;;;;;;;;;4896440;28;20936;-70
2023/03/30 02:25:28;;;;;;;19.88;4.53;;;;;;;;;;4900429;28;20112;-70
2023/03/30 02:27:54;;;;;;;21.15;4.30;;;;;;;;;;4895621;28;20094;-69
2023/03/30 02:30:24;;;;;;;24.85;4.40;;;;;;;;;;4900570;28;20156;-69
2023/03/30 02:32:55;;;;;;;24.30;4.97;;;;;;;;;;4899875;28;20043;-70
2023/03/30 02:35:39;;;;;;;23.77;5.05;;;;;;;;;;4902958;28;20047;-70
2023/03/30 02:38:16;;;;;;;26.60;4.72;;;;;;;;;;4901866;28;20667;-70
2023/03/30 02:41:01;;;;;;;22.75;4.75;;;;;;;;;;4899708;28;20039;-70
2023/03/30 02:43:45;;;;;;;22.77;5.00;;;;;;;;;;4873332;28;20912;-71
2023/03/30 02:46:16;;;;;;;20.20;4.65;;;;;;;;;;4899782;28;20036;-71
2023/03/30 02:48:48;;;;;;;25.35;4.65;;;;;;;;;;4900664;28;20058;-69
2023/03/30 02:51:19;;;;;;;22.35;5.28;;;;;;;;;;4899345;28;21468;-70
2023/03/30 02:54:03;;;;;;;22.65;4.80;;;;;;;;;;4903608;28;20058;-70
2023/03/30 02:56:36;;;;;;;25.73;4.43;;;;;;;;;;4901334;28;20058;-70
2023/03/30 02:59:02;;;;;;;24.65;4.80;;;;;;;;;;4911861;28;20051;-71
2023/03/30 03:01:36;;;;;;;23.63;5.97;;;;;;;;;;4895114;28;20035;-71
2023/03/30 03:04:03;;;;;;;25.98;4.97;;;;;;;;;;4892016;28;20038;-71
2023/03/30 03:06:31;;;;;;;22.45;4.50;;;;;;;;;;4899032;28;20035;-69
2023/03/30 03:08:57;;;;;;;27.90;4.93;;;;;;;;;;4896729;28;20051;-70
2023/03/30 03:11:23;;;;;;;25.00;5.13;;;;;;;;;;4895196;28;20131;-70
2023/03/30 03:13:48;;;;;;;23.45;4.88;;;;;;;;;;4894721;28;20088;-70
2023/03/30 03:16:14;;;;;;;32.53;5.60;;;;;;;;;;4894071;28;21037;-70
2023/03/30 03:18:40;;;;;;;28.63;5.65;;;;;;;;;;4895683;28;20467;-69
2023/03/30 03:21:09;;;;;;;22.55;4.60;;;;;;;;;;4896218;28;20046;-69
2023/03/30 03:23:35;;;;;;;22.75;4.63;;;;;;;;;;4893875;28;20935;-71
2023/03/30 03:26:00;;;;;;;27.48;4.88;;;;;;;;;;4895366;28;20043;-70
2023/03/30 03:28:26;;;;;;;23.05;4.28;;;;;;;;;;4896190;28;20055;-71
2023/03/30 03:30:52;;;;;;;23.80;4.53;;;;;;;;;;4899767;28;20047;-71
2023/03/30 03:33:19;;;;;;;26.05;4.82;;;;;;;;;;4899335;28;20080;-71
2023/03/30 03:35:44;;;;;;;28.95;5.75;;;;;;;;;;4900988;28;20081;-70
2023/03/30 03:38:10;;;;;;;22.13;4.70;;;;;;;;;;4896410;28;20102;-70
2023/03/30 03:40:38;;;;;;;33.33;5.70;;;;;;;;;;4896819;28;20047;-70
2023/03/30 03:43:03;;;;;;;27.85;5.32;;;;;;;;;;4895976;28;20047;-70
2023/03/30 03:45:29;;;;;;;30.13;4.93;;;;;;;;;;4895038;28;20120;-70
2023/03/30 03:47:54;;;;;;;22.88;4.47;;;;;;;;;;4878725;28;20047;-71
2023/03/30 03:50:22;;;;;;;24.73;4.70;;;;;;;;;;4894475;28;20117;-70
2023/03/30 03:52:47;;;;;;;24.75;4.68;;;;;;;;;;4913045;28;20102;-70
2023/03/30 03:55:12;;;;;;;22.58;4.38;;;;;;;;;;4903402;28;20664;-69
2023/03/30 03:57:41;;;;;;;19.40;4.55;;;;;;;;;;4898227;28;20116;-72
2023/03/30 04:00:14;;;;;;;19.13;4.10;;;;;;;;;;4895642;28;20050;-70
2023/03/30 04:02:43;;;;;;;25.05;4.68;;;;;;;;;;4898633;28;20035;-69
2023/03/30 04:05:08;;;;;;;21.33;4.50;;;;;;;;;;4978945;28;20039;-69
2023/03/30 04:07:34;;;;;;;20.35;3.88;;;;;;;;;;4897672;28;21023;-70
2023/03/30 04:10:00;;;;;;;23.75;4.28;;;;;;;;;;4898651;28;20052;-71
2023/03/30 04:12:27;;;;;;;24.80;4.10;;;;;;;;;;4900060;28;20042;-72
2023/03/30 04:14:52;;;;;;;22.88;5.35;;;;;;;;;;4927138;28;20043;-70
2023/03/30 04:17:22;;;;;;;24.83;4.78;;;;;;;;;;4898404;28;20134;-71
2023/03/30 04:19:52;;;;;;;22.98;4.43;;;;;;;;;;4928102;28;20867;-70
2023/03/30 04:22:18;;;;;;;22.15;4.72;;;;;;;;;;4894868;28;21132;-70
2023/03/30 04:24:44;;;;;;;29.35;4.70;;;;;;;;;;4895136;28;20043;-70
2023/03/30 04:27:13;;;;;;;31.92;4.72;;;;;;;;;;4895513;28;20044;-70
2023/03/30 04:29:43;;;;;;;25.05;4.65;;;;;;;;;;4898890;28;20047;-69
2023/03/30 04:32:09;;;;;;;28.83;4.57;;;;;;;;;;4899431;28;20127;-70
2023/03/30 04:34:34;;;;;;;31.83;5.30;;;;;;;;;;4896496;28;20744;-70
2023/03/30 04:37:00;;;;;;;36.88;5.75;;;;;;;;;;4898956;28;21102;-69
2023/03/30 04:39:28;;;;;;;28.17;4.93;;;;;;;;;;4898098;28;20047;-71
2023/03/30 04:41:54;;;;;;;36.00;6.10;;;;;;;;;;4899484;28;20051;-70
2023/03/30 04:44:20;;;;;;;32.83;6.10;;;;;;;;;;4900546;28;20047;-71
2023/03/30 04:46:48;;;;;;;37.10;6.30;;;;;;;;;;4900384;28;20081;-71
2023/03/30 04:49:13;;;;;;;33.00;6.05;;;;;;;;;;4890313;28;20163;-70
2023/03/30 04:51:39;;;;;;;36.60;6.18;;;;;;;;;;4898545;28;20047;-71
2023/03/30 04:54:06;;;;;;;33.72;5.95;;;;;;;;;;4895651;28;20067;-70
2023/03/30 04:56:31;;;;;;;37.80;6.10;;;;;;;;;;4902906;28;20078;-71
2023/03/30 04:58:56;;;;;;;45.20;7.03;;;;;;;;;;4978897;28;20043;-71
2023/03/30 05:01:23;;;;;;;43.72;6.57;;;;;;;;;;4897166;28;20841;-69
2023/03/30 05:03:48;;;;;;;43.10;6.63;;;;;;;;;;4893780;28;20133;-69
2023/03/30 05:06:13;;;;;;;46.28;6.60;;;;;;;;;;4895928;28;20205;-68
2023/03/30 05:08:39;;;;;;;47.50;7.47;;;;;;;;;;4895038;28;20047;-69
2023/03/30 05:11:05;;;;;;;44.08;7.80;;;;;;;;;;4894148;28;20063;-69
2023/03/30 05:13:31;;;;;;;51.58;7.43;;;;;;;;;;4911986;28;20035;-69
2023/03/30 05:15:56;;;;;;;38.22;7.10;;;;;;;;;;4898274;28;20039;-69
2023/03/30 05:18:21;;;;;;;44.63;7.40;;;;;;;;;;4895485;28;20130;-64
2023/03/30 05:20:47;;;;;;;42.88;6.90;;;;;;;;;;4898706;28;20032;-65
2023/03/30 05:23:13;;;;;;;42.50;7.45;;;;;;;;;;4902939;28;20035;-65
2023/03/30 05:25:40;;;;;;;49.28;8.30;;;;;;;;;;4902669;28;20610;-66
2023/03/30 05:28:05;;;;;;;43.45;7.20;;;;;;;;;;4899037;28;20161;-70
2023/03/30 05:30:33;;;;;;;33.40;5.95;;;;;;;;;;4892636;28;20535;-65
2023/03/30 05:32:58;;;;;;;50.30;8.18;;;;;;;;;;4900234;28;21119;-64
2023/03/30 05:35:26;;;;;;;44.45;7.32;;;;;;;;;;4905703;28;20927;-64
2023/03/30 05:37:54;;;;;;;52.63;9.15;;;;;;;;;;4905177;28;22402;-64
2023/03/30 05:40:19;;;;;;;48.92;8.10;;;;;;;;;;4904725;28;20035;-65
2023/03/30 05:42:44;;;;;;;53.33;8.55;;;;;;;;;;4903384;28;20039;-65
2023/03/30 05:45:12;;;;;;;49.13;7.38;;;;;;;;;;4903753;28;20035;-65
2023/03/30 05:47:37;;;;;;;57.25;8.10;;;;;;;;;;4899612;28;20977;-65
2023/03/30 05:50:02;;;;;;;47.10;7.75;;;;;;;;;;4903585;28;20129;-65
2023/03/30 05:52:28;;;;;;;54.63;8.52;;;;;;;;;;4903484;28;21987;-64
2023/03/30 05:54:53;;;;;;;54.92;8.93;;;;;;;;;;4903466;28;20035;-65
2023/03/30 05:57:18;;;;;;;56.92;9.82;;;;;;;;;;4906353;28;20109;-64
2023/03/30 05:59:44;;;;;;;50.70;9.00;;;;;;;;;;4903372;28;20101;-64
2023/03/30 06:02:11;;;;;;;54.85;8.15;;;;;;;;;;4902978;28;20031;-64
2023/03/30 06:04:41;;;;;;;55.83;9.20;;;;;;;;;;4901886;28;20117;-67
2023/03/30 06:07:07;;;;;;;57.88;8.35;;;;;;;;;;4917896;28;20101;-67
2023/03/30 06:09:32;;;;;;;52.22;8.40;;;;;;;;;;4901016;28;20135;-64
2023/03/30 06:11:59;;;;;;;60.05;10.05;;;;;;;;;;4901523;28;20131;-64
2023/03/30 06:14:24;;;;;;;56.20;9.32;;;;;;;;;;4900713;28;20724;-65
2023/03/30 06:16:50;;;;;;;53.00;8.45;;;;;;;;;;4894464;28;20054;-65
2023/03/30 06:19:16;;;;;;;51.97;9.18;;;;;;;;;;4895737;28;20051;-66
2023/03/30 06:21:41;;;;;;;53.10;9.30;;;;;;;;;;4976206;28;20449;-65
2023/03/30 06:24:07;;;;;;;60.63;8.88;;;;;;;;;;4899540;28;20067;-66
2023/03/30 06:26:32;;;;;;;54.53;9.25;;;;;;;;;;4896199;28;20039;-67
2023/03/30 06:29:00;;;;;;;71.97;10.38;;;;;;;;;;4899088;28;20458;-65
2023/03/30 06:31:25;;;;;;;58.55;8.77;;;;;;;;;;4893442;28;20700;-64
2023/03/30 06:33:50;;;;;;;51.92;8.48;;;;;;;;;;4896507;28;20039;-65
2023/03/30 06:36:16;;;;;;;62.35;10.25;;;;;;;;;;4898493;28;20225;-64
2023/03/30 06:38:44;;;;;;;66.97;10.05;;;;;;;;;;4901831;28;20149;-66
2023/03/30 06:41:11;;;;;;;56.53;9.23;;;;;;;;;;4898436;28;20489;-63
2023/03/30 06:43:37;;;;;;;56.63;9.15;;;;;;;;;;4897113;28;20771;-65
2023/03/30 06:46:03;;;;;;;62.05;9.10;;;;;;;;;;4898618;28;20126;-64
2023/03/30 06:48:30;;;;;;;65.50;10.32;;;;;;;;;;4895267;28;20094;-64
2023/03/30 06:50:56;;;;;;;63.65;9.50;;;;;;;;;;4899686;28;20051;-64
2023/03/30 06:53:22;;;;;;;65.55;10.43;;;;;;;;;;4896074;28;20035;-63
2023/03/30 06:55:52;;;;;;;72.38;9.02;;;;;;;;;;4896990;28;20427;-64
2023/03/30 06:58:17;;;;;;;65.22;9.38;;;;;;;;;;4897045;28;20549;-65
2023/03/30 07:00:42;;;;;;;63.42;9.63;;;;;;;;;;4898198;28;20054;-65
2023/03/30 07:03:09;;;;;;;68.93;10.18;;;;;;;;;;4896122;28;20305;-64
2023/03/30 07:05:35;;;;;;;63.72;10.00;;;;;;;;;;4896356;28;20985;-65
2023/03/30 07:08:00;;;;;;;70.40;10.65;;;;;;;;;;4897895;28;21269;-65
2023/03/30 07:10:27;;;;;;;68.07;10.90;;;;;;;;;;4898120;28;20924;-64
2023/03/30 07:12:53;;;;;;;78.75;11.45;;;;;;;;;;4900052;28;20039;-64
2023/03/30 07:15:18;;;;;;;57.72;9.00;;;;;;;;;;4896994;28;20257;-65
2023/03/30 07:17:44;;;;;;;70.25;10.55;;;;;;;;;;4895213;28;20039;-63
2023/03/30 07:20:10;;;;;;;74.65;10.20;;;;;;;;;;4898203;28;20035;-64
2023/03/30 07:22:36;;;;;;;69.15;11.10;;;;;;;;;;4896110;28;20074;-64
2023/03/30 07:25:01;;;;;;;63.65;9.50;;;;;;;;;;4897343;28;20062;-63
2023/03/30 07:27:29;;;;;;;60.50;9.82;;;;;;;;;;4897785;28;20055;-64
2023/03/30 07:29:54;;;;;;;51.30;8.75;;;;;;;;;;4893770;28;20627;-63
2023/03/30 07:32:20;;;;;;;68.60;9.70;;;;;;;;;;4979194;28;20341;-64
2023/03/30 07:34:47;;;;;;;54.28;9.50;;;;;;;;;;4895373;28;20244;-63
2023/03/30 07:37:13;;;;;;;53.28;10.00;;;;;;;;;;4898193;28;20035;-63
2023/03/30 07:39:39;;;;;;;53.13;9.43;;;;;;;;;;4892624;28;20587;-64
2023/03/30 07:42:05;;;;;;;57.22;10.15;;;;;;;;;;4897775;28;20041;-64
2023/03/30 07:44:33;;;;;;;49.35;9.23;;;;;;;;;;4899058;28;20101;-64
2023/03/30 07:46:58;;;;;;;52.50;9.10;;;;;;;;;;4897802;28;20134;-64
2023/03/30 07:49:24;;;;;;;56.70;9.27;;;;;;;;;;4875105;28;20270;-64
2023/03/30 07:51:49;;;;;;;50.00;8.73;;;;;;;;;;4900805;28;20043;-66
2023/03/30 07:54:17;;;;;;;53.95;9.77;;;;;;;;;;4910760;28;20372;-64
2023/03/30 07:56:43;;;;;;;51.95;9.32;;;;;;;;;;4898109;28;20069;-64
2023/03/30 07:59:09;;;;;;;58.58;10.50;;;;;;;;;;4897484;28;20119;-64
2023/03/30 08:01:34;;;;;;;52.17;8.75;;;;;;;;;;4898032;28;21967;-64
2023/03/30 08:04:19;;;;;;;57.47;10.18;;;;;;;;;;4897854;28;20053;-64
2023/03/30 08:06:45;;;;;;;63.80;10.70;;;;;;;;;;4930632;28;20043;-64
2023/03/30 08:09:11;;;;;;;45.83;9.15;;;;;;;;;;4897428;28;20058;-64
2023/03/30 08:11:40;;;;;;;51.60;9.38;;;;;;;;;;4901850;28;20154;-64
2023/03/30 08:14:05;;;;;;;60.08;10.95;;;;;;;;;;4959830;28;20152;-65
2023/03/30 08:16:31;;;;;;;63.85;10.60;;;;;;;;;;4900222;28;20070;-64
2023/03/30 08:18:56;;;;;;;58.97;10.55;;;;;;;;;;4898667;28;20269;-64
2023/03/30 08:21:24;;;;;;;58.72;10.32;;;;;;;;;;4902315;28;20063;-65
2023/03/30 08:23:49;;;;;;;63.88;10.50;;;;;;;;;;4898944;28;20054;-66
2023/03/30 08:26:15;;;;;;;56.30;9.93;;;;;;;;;;4899018;28;20670;-65
2023/03/30 08:28:42;;;;;;;56.70;10.07;;;;;;;;;;4896300;28;20046;-64
2023/03/30 08:31:09;;;;;;;71.40;11.05;;;;;;;;;;4897919;28;20408;-64
2023/03/30 08:33:35;;;;;;;52.75;10.20;;;;;;;;;;4897541;28;20039;-65
2023/03/30 08:36:03;;;;;;;64.75;11.60;;;;;;;;;;4898801;28;20041;-64
2023/03/30 08:38:28;;;;;;;52.60;9.98;;;;;;;;;;4899348;28;20035;-64
2023/03/30 08:40:56;;;;;;;59.50;10.25;;;;;;;;;;4901049;28;20641;-63
2023/03/30 08:43:21;;;;;;;55.10;9.32;;;;;;;;;;4898771;28;20567;-64
2023/03/30 08:45:46;;;;;;;58.75;11.13;;;;;;;;;;4898840;28;20526;-64
2023/03/30 08:48:25;;;;;;;59.03;10.30;;;;;;;;;;4897772;28;20066;-64
2023/03/30 08:50:58;;;;;;;54.92;11.00;;;;;;;;;;4881584;28;20039;-65
2023/03/30 08:53:24;;;;;;;55.47;10.85;;;;;;;;;;4895839;28;20044;-63
2023/03/30 08:55:57;;;;;;;64.13;11.63;;;;;;;;;;4877823;28;20039;-63
2023/03/30 08:58:41;;;;;;;56.97;10.25;;;;;;;;;;4895869;28;20043;-63
2023/03/30 09:01:24;;;;;;;55.88;10.55;;;;;;;;;;4928895;28;20043;-64
2023/03/30 09:04:08;;;;;;;58.65;10.55;;;;;;;;;;4895850;28;20039;-65
2023/03/30 09:06:49;;;;;;;64.68;10.52;;;;;;;;;;4893666;28;20125;-64
2023/03/30 09:09:19;;;;;;;61.10;11.30;;;;;;;;;;4894345;28;20170;-64
2023/03/30 09:11:47;;;;;;;59.28;10.10;;;;;;;;;;4900985;28;20046;-68
2023/03/30 09:14:32;;;;;;;63.28;10.75;;;;;;;;;;4904718;28;20919;-68
2023/03/30 09:17:04;;;;;;;56.08;10.82;;;;;;;;;;4901752;28;20857;-66
2023/03/30 09:19:32;;;;;;;56.83;10.32;;;;;;;;;;4900028;28;20040;-68
2023/03/30 09:21:58;;;;;;;62.95;11.02;;;;;;;;;;4902580;28;20061;-71
2023/03/30 09:24:28;;;;;;;56.22;10.82;;;;;;;;;;4902683;28;20043;-67
2023/03/30 09:27:06;;;;;;;58.20;10.10;;;;;;;;;;4901760;28;20100;-67
2023/03/30 09:29:37;;;;;;;59.60;10.77;;;;;;;;;;4901100;28;20807;-68
2023/03/30 09:32:12;;;;;;;59.40;10.40;;;;;;;;;;4900866;28;20509;-69
2023/03/30 09:34:38;;;;;;;61.78;11.50;;;;;;;;;;4901920;28;20177;-66
2023/03/30 09:37:17;;;;;;;53.90;10.48;;;;;;;;;;4901333;28;20073;-67
2023/03/30 09:39:42;;;;;;;59.92;10.93;;;;;;;;;;4900854;28;20032;-74
2023/03/30 09:42:13;;;;;;;68.30;11.55;;;;;;;;;;4903295;28;20125;-67
2023/03/30 09:44:45;;;;;;;57.63;10.43;;;;;;;;;;4903097;28;20130;-68
2023/03/30 09:47:43;;;;;;;64.47;10.30;;;;;;;;;;4895832;28;20051;-68
2023/03/30 09:50:11;;;;;;;62.90;10.60;;;;;;;;;;4889853;28;20078;-68
2023/03/30 09:52:40;;;;;;;65.15;11.00;;;;;;;;;;4895441;28;20027;-69
2023/03/30 09:55:21;;;;;;;60.95;10.25;;;;;;;;;;4911354;28;20043;-66
2023/03/30 09:57:49;;;;;;;61.28;10.43;;;;;;;;;;4915082;28;20107;-69
2023/03/30 10:00:21;;;;;;;66.63;11.30;;;;;;;;;;4900979;28;20089;-67
2023/03/30 10:02:54;;;;;;;66.35;10.95;;;;;;;;;;4905913;28;20158;-69
2023/03/30 10:05:19;;;;;;;54.38;9.95;;;;;;;;;;4905442;28;20043;-68
2023/03/30 10:07:51;;;;;;;61.65;10.25;;;;;;;;;;4904388;28;20130;-68
2023/03/30 10:10:19;;;;;;;67.00;10.70;;;;;;;;;;4923066;28;20666;-69
2023/03/30 10:12:45;;;;;;;64.30;10.82;;;;;;;;;;4909297;28;20036;-69
2023/03/30 10:15:17;;;;;;;66.35;10.80;;;;;;;;;;4905466;28;20072;-70
2023/03/30 10:17:44;;;;;;;59.75;10.13;;;;;;;;;;4904064;28;20637;-69
2023/03/30 10:20:29;;;;;;;68.60;10.90;;;;;;;;;;4900823;28;20595;-69
2023/03/30 10:22:58;;;;;;;64.65;10.52;;;;;;;;;;4902326;28;20036;-68
2023/03/30 10:25:26;;;;;;;60.72;11.20;;;;;;;;;;4903931;28;20135;-68
2023/03/30 10:27:54;;;;;;;74.57;11.37;;;;;;;;;;4904768;28;20040;-67
2023/03/30 10:30:23;;;;;;;63.28;10.07;;;;;;;;;;4904227;28;20114;-69
2023/03/30 10:32:53;;;;;;;72.40;10.48;;;;;;;;;;4899401;28;20040;-67
2023/03/30 10:35:23;;;;;;;69.25;11.32;;;;;;;;;;4898364;28;20035;-69
2023/03/30 10:37:50;;;;;;;61.20;11.40;;;;;;;;;;4887283;28;25105;-68
2023/03/30 10:40:18;;;;;;;63.88;10.65;;;;;;;;;;4925099;28;20039;-68
2023/03/30 10:42:47;;;;;;;68.93;10.80;;;;;;;;;;4898736;28;20068;-68
2023/03/30 10:45:15;;;;;;;63.67;11.77;;;;;;;;;;4898799;28;20620;-70
2023/03/30 10:47:59;;;;;;;68.00;11.13;;;;;;;;;;4899103;28;20038;-67
2023/03/30 10:50:39;;;;;;;70.15;11.13;;;;;;;;;;4902253;28;20970;-68
2023/03/30 10:53:25;;;;;;;64.43;10.80;;;;;;;;;;4903768;28;20159;-68
2023/03/30 10:55:50;;;;;;;69.57;11.65;;;;;;;;;;4904763;28;21286;-67
2023/03/30 10:58:26;;;;;;;75.55;13.18;;;;;;;;;;4929833;28;20130;-67
2023/03/30 11:00:51;;;;;;;69.15;12.95;;;;;;;;;;4901637;28;20042;-68
2023/03/30 11:03:24;;;;;;;64.50;11.35;;;;;;;;;;4932423;28;20043;-69
2023/03/30 11:05:51;;;;;;;66.90;11.10;;;;;;;;;;4901540;28;20114;-68
2023/03/30 11:08:33;;;;;;;81.80;13.57;;;;;;;;;;4931010;28;20140;-68
2023/03/30 11:10:58;;;;;;;;;;;;;;;;;;4984567;28;20854;-67
2023/03/30 11:13:36;;;;;;;59.50;10.25;;;;;;;;;;4901736;28;21277;-67
2023/03/30 11:16:08;;;;;;;64.05;10.70;;;;;;;;;;4932909;28;20043;-68
2023/03/30 11:18:41;;;;;;;67.05;11.98;;;;;;;;;;4900143;28;20046;-68
2023/03/30 11:21:12;;;;;;;78.03;11.60;;;;;;;;;;4902421;28;20170;-67
2023/03/30 11:23:54;;;;;;;64.72;11.52;;;;;;;;;;4896429;28;20039;-67
2023/03/30 11:26:19;;;;;;;;;;;;;;;;;;4901692;28;20165;-68
2023/03/30 11:28:49;;;;;;;71.30;11.05;;;;;;;;;;4903838;28;19955;-68
2023/03/30 11:31:33;;;;;;;71.22;10.32;;;;;;;;;;4900958;28;20295;-69
2023/03/30 11:34:23;;;;;;;74.43;11.73;;;;;;;;;;4894606;28;20620;-69
2023/03/30 11:37:07;;;;;;;71.65;11.10;;;;;;;;;;4898516;28;20436;-68
2023/03/30 11:39:33;;;;;;;58.58;11.10;;;;;;;;;;4896163;28;20124;-69
2023/03/30 11:42:02;;;;;;;63.63;11.15;;;;;;;;;;4903132;28;26416;-69
2023/03/30 11:44:27;;;;;;;63.40;11.10;;;;;;;;;;4898598;28;20040;-69
2023/03/30 11:47:05;;;;;;;60.35;11.13;;;;;;;;;;4898595;28;20227;-68
2023/03/30 11:49:42;;;;;;;66.85;12.15;;;;;;;;;;4895956;28;20538;-68
2023/03/30 11:52:16;;;;;;;60.10;10.90;;;;;;;;;;4896464;28;20035;-68
2023/03/30 11:55:07;;;;;;;60.10;9.82;;;;;;;;;;4901057;28;20480;-67
2023/03/30 11:57:33;;;;;;;63.45;11.25;;;;;;;;;;4984115;28;20468;-68
2023/03/30 12:00:19;;;;;;;59.95;10.48;;;;;;;;;;4899294;28;20152;-67
2023/03/30 12:02:48;;;;;;;58.10;9.75;;;;;;;;;;4895571;28;20789;-71
2023/03/30 12:05:37;;;;;;;63.78;12.02;;;;;;;;;;4903155;28;20153;-68
2023/03/30 12:08:19;;;;;;;61.80;10.30;;;;;;;;;;4908018;28;20036;-69
2023/03/30 12:10:47;;;;;;;64.00;10.95;;;;;;;;;;4922934;28;20049;-68
2023/03/30 12:13:16;;;;;;;60.40;9.93;;;;;;;;;;4900400;28;20039;-68
2023/03/30 12:15:45;;;;;;;55.15;9.63;;;;;;;;;;4899722;28;20115;-67
2023/03/30 12:18:16;;;;;;;61.00;10.75;;;;;;;;;;4901308;28;20031;-67
2023/03/30 12:20:56;;;;;;;59.40;10.60;;;;;;;;;;4904633;28;20063;-68
2023/03/30 12:23:34;;;;;;;57.78;9.45;;;;;;;;;;4900050;28;20583;-69
2023/03/30 12:26:18;;;;;;;56.67;10.00;;;;;;;;;;4911528;28;20032;-67
2023/03/30 12:28:43;;;;;;;55.92;10.95;;;;;;;;;;4911611;28;20123;-67
2023/03/30 12:31:08;;;;;;;63.13;10.73;;;;;;;;;;4904180;28;20136;-68
2023/03/30 12:33:34;;;;;;;60.90;10.00;;;;;;;;;;4900712;28;20166;-69
2023/03/30 12:36:01;;;;;;;63.55;10.38;;;;;;;;;;4903247;28;20028;-67
2023/03/30 12:38:37;;;;;;;54.58;9.88;;;;;;;;;;4903973;28;20207;-67
2023/03/30 12:41:02;;;;;;;63.83;9.52;;;;;;;;;;4904350;28;20039;-68
2023/03/30 12:43:40;;;;;;;65.60;11.75;;;;;;;;;;4901643;28;20039;-70
2023/03/30 12:46:12;;;;;;;62.92;10.20;;;;;;;;;;4900696;28;20036;-70
2023/03/30 12:48:56;;;;;;;60.05;10.75;;;;;;;;;;4898289;28;20910;-72
2023/03/30 12:51:25;;;;;;;58.85;10.57;;;;;;;;;;4907610;28;20492;-70
2023/03/30 12:54:07;;;;;;;69.32;10.55;;;;;;;;;;4897006;28;20169;-70
2023/03/30 12:56:44;;;;;;;73.20;11.70;;;;;;;;;;4893019;28;20609;-72
2023/03/30 12:59:29;;;;;;;69.43;11.00;;;;;;;;;;4900298;28;20047;-68
2023/03/30 13:02:01;;;;;;;69.35;12.23;;;;;;;;;;4945103;28;20670;-69
2023/03/30 13:04:39;;;;;;;79.72;12.63;;;;;;;;;;4905261;28;20051;-68
2023/03/30 13:07:09;;;;;;;71.97;11.55;;;;;;;;;;4901671;28;20039;-68
2023/03/30 13:09:51;;;;;;;68.47;11.43;;;;;;;;;;4894092;28;20667;-68
2023/03/30 13:12:28;;;;;;;71.10;11.15;;;;;;;;;;4979370;28;20262;-68
2023/03/30 13:14:58;;;;;;;64.30;10.68;;;;;;;;;;4895548;28;20039;-72
2023/03/30 13:17:26;;;;;;;73.72;11.30;;;;;;;;;;4895586;28;20131;-72
2023/03/30 13:20:12;;;;;;;77.53;12.63;;;;;;;;;;4909453;28;20100;-70
2023/03/30 13:22:37;;;;;;;66.43;11.02;;;;;;;;;;4895578;28;20048;-69
2023/03/30 13:25:16;;;;;;;76.38;10.88;;;;;;;;;;4893123;28;20051;-70
2023/03/30 13:27:42;;;;;;;69.50;11.25;;;;;;;;;;4895951;28;20027;-69
2023/03/30 13:30:13;;;;;;;59.58;10.68;;;;;;;;;;4891193;28;20058;-70
2023/03/30 13:32:38;;;;;;;72.97;11.13;;;;;;;;;;4941091;28;20219;-70
2023/03/30 13:35:18;;;;;;;71.38;12.25;;;;;;;;;;4967436;28;20290;-70
2023/03/30 13:37:58;;;;;;;60.60;11.75;;;;;;;;;;4906222;28;20062;-69
2023/03/30 13:40:28;;;;;;;73.30;12.70;;;;;;;;;;4902574;28;20327;-70
2023/03/30 13:43:15;;;;;;;62.20;10.85;;;;;;;;;;4895918;28;20948;-69
2023/03/30 13:46:05;;;;;;;65.68;10.95;;;;;;;;;;4902593;28;20035;-69
2023/03/30 13:48:49;;;;;;;70.28;11.40;;;;;;;;;;4950679;28;20054;-71
2023/03/30 13:51:17;;;;;;;65.32;11.38;;;;;;;;;;4911930;28;20828;-68
2023/03/30 13:53:48;;;;;;;70.70;11.63;;;;;;;;;;4898559;28;22641;-71
2023/03/30 13:56:13;;;;;;;79.43;13.10;;;;;;;;;;4901277;28;20121;-70
2023/03/30 13:58:45;;;;;;;73.38;11.27;;;;;;;;;;4900825;28;20039;-70
2023/03/30 14:01:13;;;;;;;65.80;10.75;;;;;;;;;;4905352;28;20052;-69
2023/03/30 14:03:39;;;;;;;69.13;11.32;;;;;;;;;;4900775;28;20075;-70
2023/03/30 14:06:14;;;;;;;72.93;11.68;;;;;;;;;;4894096;28;21269;-70
2023/03/30 14:08:43;;;;;;;72.45;11.35;;;;;;;;;;4900675;28;20156;-70
2023/03/30 14:11:21;;;;;;;68.47;11.00;;;;;;;;;;4901079;28;20047;-69
2023/03/30 14:13:48;;;;;;;60.22;10.80;;;;;;;;;;4901737;28;20121;-72
2023/03/30 14:16:17;;;;;;;57.03;9.70;;;;;;;;;;4913575;28;20848;-70
2023/03/30 14:18:45;;;;;;;60.13;9.82;;;;;;;;;;4904937;28;20031;-70
2023/03/30 14:21:14;;;;;;;72.72;10.65;;;;;;;;;;4901020;28;20058;-70
2023/03/30 14:23:41;;;;;;;63.55;10.07;;;;;;;;;;4897099;28;20047;-70
2023/03/30 14:26:16;;;;;;;69.53;11.43;;;;;;;;;;4899550;28;20041;-71
2023/03/30 14:28:41;;;;;;;65.32;10.45;;;;;;;;;;4996505;28;20150;-70
2023/03/30 14:31:14;;;;;;;66.40;10.70;;;;;;;;;;4897114;28;20043;-68
2023/03/30 14:33:40;;;;;;;60.33;9.93;;;;;;;;;;4901930;28;21007;-69
2023/03/30 14:36:10;;;;;;;69.65;10.52;;;;;;;;;;4920503;28;20039;-71
2023/03/30 14:38:39;;;;;;;62.55;10.15;;;;;;;;;;4919553;28;20148;-70
2023/03/30 14:41:06;;;;;;;60.95;10.80;;;;;;;;;;4911974;28;20054;-72